Startpagina
METAR-TAF:

METAR-TAF

Vliegvelden :

Ankara Esenboğa, Turkije

Luchthaven Ankara Esenboga

breedte: 40-07N, lengte: 032-59E, hoogte: 953 m

Actueel weer

Dit bericht is 37 minuten geleden gemaakt, om 11:20 UTC
Wind 2 kt uit variabele richting
Temperatuur 13°C
Vochtigheid 41%
Druk 1012 hPa
Zicht 10 km of meer
Weinig wolken op 4000 ft
Gebroken wolken op 10000 ft

METAR: LTAC 191120Z VRB02KT 9999 FEW040 BKN100 13/00 Q1012 NOSIG RMK RWY21L 28001KT RWY03L VRB02KT RWY21R VRB01KT

Tijdstip: 14:57 (11:57 UTC)

Verwachting

Dit bericht is 1 uur en het 17 minuten geleden gemaakt, om 10:40 UTC
Verwachting geldig van 19 om 12 UTC tot 20 om 12 UTC
Wind 2 kt uit variabele richting
Zicht 10 km of meer
Verspreide wolken op 4000 ft
Tijdelijke
van 20 om 08 UTC tot 20 om 12 UTC
Gebroken wolken op 3000 ft
Gebroken wolken op 9000 ft
lichte regenbuien

TAF: LTAC 191040Z 1912/2012 VRB02KT 9999 SCT040 TEMPO 2008/2012 -SHRA BKN030 BKN090

Waarnemingen en weersverwachtingen van meer dan 4000 vliegvelden (METAR en TAF).

De beschikbare stations zijn de gele en rode punten op de kaart.

Ga met uw muis naar het station om de naam te zien.

Klik dan om waarnemingen en weersverwachtingen te zien.

kaart wijzigen: klik op de groene knoppen met een zwart kruis om in te zoomen, op de groene knop met een streepje om uit te zoomen of op de groene pijlen voor aangrenzende kaarten.


METAR-TAF: